Time;durP1;ratioP1;P1;durP2;ratioP2;P2;SDS_P1;SDS_P2;PMS_P1;PMS_P2;Temp;Humidity;BMP_temperature;BMP_pressure;BME280_temperature;BME280_humidity;BME280_pressure;Samples;Min_cycle;Max_cycle;Signal;HPM_P1;HPM_P2
2023/09/22 00:01:23;;;;;;;6.63;5.90;;;18.70;70.40;;;;;;6187488;28;20275;-78
2023/09/22 00:04:27;;;;;;;7.83;7.03;;;18.70;70.60;;;;;;6188906;28;20744;-79
2023/09/22 00:07:30;;;;;;;7.30;6.67;;;18.70;70.80;;;;;;6188719;28;20337;-80
2023/09/22 00:10:33;;;;;;;5.90;5.57;;;18.60;71.10;;;;;;6188815;28;20286;-77
2023/09/22 00:13:38;;;;;;;7.40;5.80;;;18.60;71.00;;;;;;6182027;28;20284;-78
2023/09/22 00:16:42;;;;;;;7.37;5.97;;;18.60;71.10;;;;;;6189568;28;20884;-80
2023/09/22 00:19:46;;;;;;;6.13;5.70;;;18.70;71.20;;;;;;6189020;28;20266;-79
2023/09/22 00:22:49;;;;;;;8.90;6.83;;;18.70;71.10;;;;;;6176643;28;20232;-76
2023/09/22 00:25:52;;;;;;;6.60;6.10;;;18.70;71.00;;;;;;6178913;28;20368;-78
2023/09/22 00:28:56;;;;;;;7.17;6.57;;;18.70;70.90;;;;;;6184514;28;20246;-79
2023/09/22 00:31:59;;;;;;;6.70;6.10;;;18.80;70.80;;;;;;6187571;28;20251;-77
2023/09/22 00:35:03;;;;;;;7.23;6.53;;;18.80;70.90;;;;;;6187897;28;20751;-80
2023/09/22 00:38:07;;;;;;;7.97;7.17;;;18.80;70.70;;;;;;6187531;28;20383;-78
2023/09/22 00:41:10;;;;;;;11.53;7.20;;;18.80;70.70;;;;;;6187334;28;20318;-79
2023/09/22 00:44:15;;;;;;;7.87;7.13;;;18.80;70.70;;;;;;6187305;28;20755;-80
2023/09/22 00:47:19;;;;;;;9.63;6.80;;;18.80;70.70;;;;;;6180882;28;20245;-79
2023/09/22 00:50:22;;;;;;;7.43;6.73;;;18.80;70.90;;;;;;6180973;28;20798;-79
2023/09/22 00:53:28;;;;;;;7.13;6.70;;;18.70;70.90;;;;;;6187359;28;20297;-79
2023/09/22 00:56:32;;;;;;;10.30;6.57;;;18.80;71.00;;;;;;6187395;28;20252;-77
2023/09/22 00:59:37;;;;;;;7.70;6.57;;;18.70;71.20;;;;;;6188315;28;20797;-78
2023/09/22 01:02:40;;;;;;;7.87;7.07;;;18.70;71.20;;;;;;6188124;28;20327;-79
2023/09/22 01:05:44;;;;;;;8.33;6.77;;;18.80;71.00;;;;;;6184336;28;20814;-77
2023/09/22 01:08:49;;;;;;;7.17;6.67;;;18.80;71.00;;;;;;6163692;28;20232;-76
2023/09/22 01:11:52;;;;;;;7.77;6.83;;;18.80;70.80;;;;;;6174600;28;20243;-79
2023/09/22 01:14:57;;;;;;;7.07;6.67;;;18.80;70.80;;;;;;6190989;28;20243;-79
2023/09/22 01:18:00;;;;;;;9.03;7.90;;;18.80;70.90;;;;;;6184469;28;20302;-78
2023/09/22 01:21:04;;;;;;;7.70;7.10;;;18.80;70.90;;;;;;6192116;28;20251;-78
2023/09/22 01:24:10;;;;;;;8.07;7.20;;;18.80;71.10;;;;;;6183413;28;20268;-80
2023/09/22 01:27:13;;;;;;;9.37;8.57;;;18.70;71.40;;;;;;6189708;28;20711;-77
2023/09/22 01:30:17;;;;;;;9.37;8.47;;;18.60;71.60;;;;;;6192541;28;20275;-79
2023/09/22 01:33:21;;;;;;;8.93;8.13;;;18.50;71.90;;;;;;6192390;28;20292;-79
2023/09/22 01:36:25;;;;;;;8.13;7.33;;;18.50;72.00;;;;;;6183336;28;20379;-76
2023/09/22 01:39:29;;;;;;;10.70;8.47;;;18.50;71.70;;;;;;6190508;28;20291;-77
2023/09/22 01:42:32;;;;;;;8.87;8.17;;;18.50;72.00;;;;;;6190330;28;20327;-79
2023/09/22 01:45:36;;;;;;;9.07;8.27;;;18.50;72.10;;;;;;6190851;28;20242;-78
2023/09/22 01:48:39;;;;;;;9.40;8.50;;;18.50;72.40;;;;;;6189076;28;20236;-78
2023/09/22 01:51:43;;;;;;;9.07;8.13;;;18.40;72.30;;;;;;6175723;28;20240;-77
2023/09/22 01:54:47;;;;;;;9.30;8.60;;;18.40;72.40;;;;;;6200615;28;20250;-77
2023/09/22 01:57:50;;;;;;;9.37;8.43;;;18.40;72.70;;;;;;6189099;28;20626;-78
2023/09/22 02:00:54;;;;;;;9.47;8.53;;;18.30;72.80;;;;;;6185006;28;20240;-78
2023/09/22 02:03:57;;;;;;;10.10;9.30;;;18.30;72.90;;;;;;6185529;28;20303;-77
2023/09/22 02:07:00;;;;;;;10.00;9.13;;;18.30;72.90;;;;;;6188476;28;20719;-77
2023/09/22 02:10:06;;;;;;;9.73;8.90;;;18.20;73.20;;;;;;6188712;28;20760;-77
2023/09/22 02:13:09;;;;;;;9.77;8.50;;;18.20;73.20;;;;;;6185350;28;20248;-79
2023/09/22 02:16:12;;;;;;;9.23;8.60;;;18.20;73.10;;;;;;6188152;28;20582;-78
2023/09/22 02:19:16;;;;;;;8.73;8.13;;;18.20;73.10;;;;;;6187324;28;20236;-76
2023/09/22 02:22:19;;;;;;;9.70;9.10;;;18.20;73.10;;;;;;6188853;28;20320;-79
2023/09/22 02:25:25;;;;;;;10.47;9.47;;;18.20;73.20;;;;;;6187207;28;20790;-76
2023/09/22 02:28:28;;;;;;;9.73;9.13;;;18.20;73.40;;;;;;6188935;28;20284;-78
2023/09/22 02:31:31;;;;;;;10.53;9.63;;;18.20;73.50;;;;;;6188598;28;20246;-78
2023/09/22 02:34:34;;;;;;;10.70;9.70;;;18.20;73.30;;;;;;6185772;28;20239;-78
2023/09/22 02:37:37;;;;;;;9.27;8.57;;;18.20;73.60;;;;;;6188687;28;20334;-79
2023/09/22 02:40:42;;;;;;;9.63;8.90;;;18.20;73.60;;;;;;6186461;28;20566;-78
2023/09/22 02:43:45;;;;;;;10.00;9.10;;;18.30;73.40;;;;;;6183845;28;20236;-78
2023/09/22 02:46:48;;;;;;;8.47;7.87;;;18.30;73.40;;;;;;6180339;28;20449;-78
2023/09/22 02:49:51;;;;;;;9.30;8.60;;;18.40;73.20;;;;;;6183790;28;20581;-79
2023/09/22 02:52:54;;;;;;;9.60;8.80;;;18.40;73.40;;;;;;6188544;28;20732;-79
2023/09/22 02:56:04;;;;;;;9.47;8.67;;;18.40;73.50;;;;;;6187934;28;20240;-79
2023/09/22 02:59:07;;;;;;;9.83;8.93;;;18.40;73.20;;;;;;6185010;28;20244;-79
2023/09/22 03:02:10;;;;;;;9.97;8.97;;;18.40;73.30;;;;;;6185355;28;20338;-79
2023/09/22 03:05:15;;;;;;;9.23;8.33;;;18.50;73.10;;;;;;6178974;28;20241;-76
2023/09/22 03:08:18;;;;;;;8.67;7.93;;;18.50;73.10;;;;;;6179317;28;20275;-78
2023/09/22 03:11:23;;;;;;;9.73;8.73;;;18.50;73.10;;;;;;6188510;28;20734;-80
2023/09/22 03:14:26;;;;;;;9.07;8.27;;;18.60;73.00;;;;;;6185699;28;20379;-79
2023/09/22 03:17:29;;;;;;;9.20;8.50;;;18.60;72.90;;;;;;6189750;28;20625;-78
2023/09/22 03:20:33;;;;;;;8.53;7.73;;;18.60;72.90;;;;;;6184986;28;20235;-78
2023/09/22 03:23:36;;;;;;;8.97;7.83;;;18.60;73.00;;;;;;6172188;28;20681;-77
2023/09/22 03:26:40;;;;;;;8.13;7.50;;;18.70;73.20;;;;;;6189561;28;20274;-82
2023/09/22 03:29:43;;;;;;;8.13;7.60;;;18.70;73.10;;;;;;6189291;28;20791;-82
2023/09/22 03:32:46;;;;;;;7.73;7.03;;;18.70;73.30;;;;;;6179103;28;20717;-81
2023/09/22 03:35:50;;;;;;;8.83;7.90;;;18.60;73.40;;;;;;6189393;28;20224;-81
2023/09/22 03:38:53;;;;;;;8.10;7.33;;;18.60;73.80;;;;;;6183558;28;20238;-83
2023/09/22 03:41:57;;;;;;;6.90;5.60;;;18.60;74.00;;;;;;6189870;28;20278;-83
2023/09/22 03:45:00;;;;;;;6.27;5.97;;;18.60;74.10;;;;;;6189644;28;20248;-79
2023/09/22 03:48:05;;;;;;;6.23;5.93;;;18.60;74.50;;;;;;6189669;28;20956;-82
2023/09/22 03:51:08;;;;;;;6.57;6.07;;;18.50;75.00;;;;;;6186660;28;20244;-83
2023/09/22 03:54:13;;;;;;;5.77;5.37;;;18.50;75.40;;;;;;6188624;28;20261;-80
2023/09/22 03:57:18;;;;;;;3.23;3.20;;;18.40;75.80;;;;;;6158554;28;20227;-83
2023/09/22 04:00:27;;;;;;;3.37;3.20;;;18.30;74.40;;;;;;6189648;28;20236;-81
2023/09/22 04:03:31;;;;;;;3.20;3.10;;;18.10;75.20;;;;;;6179262;28;20307;-80
2023/09/22 04:06:34;;;;;;;3.50;3.40;;;18.00;75.30;;;;;;6188743;28;20242;-82
2023/09/22 04:09:37;;;;;;;3.13;3.10;;;18.00;76.20;;;;;;6186799;28;20255;-81
2023/09/22 04:12:42;;;;;;;3.57;3.47;;;17.80;76.90;;;;;;6187441;28;20240;-83
2023/09/22 04:15:45;;;;;;;3.57;3.37;;;17.70;77.50;;;;;;6189268;28;20247;-80
2023/09/22 04:18:54;;;;;;;2.80;2.70;;;17.60;77.90;;;;;;6178046;28;20243;-81
2023/09/22 04:21:57;;;;;;;3.40;3.23;;;17.50;78.20;;;;;;6189107;28;20326;-82
2023/09/22 04:25:02;;;;;;;3.50;3.40;;;17.50;78.20;;;;;;6186289;28;20266;-80
2023/09/22 04:28:11;;;;;;;2.67;2.63;;;17.40;78.70;;;;;;6189388;28;20243;-80
2023/09/22 04:31:14;;;;;;;3.20;3.10;;;17.40;78.30;;;;;;6187290;28;20227;-81
2023/09/22 04:34:19;;;;;;;4.67;2.80;;;17.30;78.40;;;;;;6183653;28;20242;-79
2023/09/22 04:37:23;;;;;;;2.87;2.77;;;17.30;78.80;;;;;;6186022;28;20239;-81
2023/09/22 04:40:29;;;;;;;3.07;2.80;;;17.20;79.50;;;;;;6188882;28;20228;-79
2023/09/22 04:43:35;;;;;;;3.20;3.00;;;17.10;79.60;;;;;;6179873;28;20271;-80
2023/09/22 04:46:38;;;;;;;3.00;2.90;;;17.00;79.60;;;;;;6192052;28;20231;-80
2023/09/22 04:49:42;;;;;;;2.80;2.60;;;17.00;79.70;;;;;;6193920;28;20232;-81
2023/09/22 04:52:45;;;;;;;2.97;2.87;;;17.00;79.70;;;;;;6194057;28;20329;-79
2023/09/22 04:55:48;;;;;;;3.17;3.07;;;17.00;79.80;;;;;;6194448;28;20228;-82
2023/09/22 04:58:56;;;;;;;2.73;2.63;;;17.00;79.80;;;;;;6191467;28;20771;-82
2023/09/22 05:01:59;;;;;;;2.90;2.80;;;17.00;80.30;;;;;;6195534;28;20232;-78
2023/09/22 05:05:03;;;;;;;3.20;3.00;;;16.90;80.60;;;;;;6186906;28;20896;-80
2023/09/22 05:08:07;;;;;;;3.30;3.20;;;16.80;81.10;;;;;;6193665;28;20311;-81
2023/09/22 05:11:10;;;;;;;3.17;3.00;;;16.80;81.10;;;;;;6181904;28;20482;-78
2023/09/22 05:14:15;;;;;;;3.47;3.20;;;16.80;81.20;;;;;;6188044;28;20239;-78
2023/09/22 05:17:18;;;;;;;3.50;3.30;;;16.90;81.40;;;;;;6193485;28;20236;-79
2023/09/22 05:20:24;;;;;;;2.97;2.70;;;16.80;81.60;;;;;;6191489;28;20323;-80
2023/09/22 05:23:29;;;;;;;3.67;3.23;;;16.90;81.70;;;;;;6192024;28;20236;-80
2023/09/22 05:26:32;;;;;;;3.07;2.87;;;16.90;81.90;;;;;;6193384;28;20243;-79
2023/09/22 05:29:37;;;;;;;3.40;3.20;;;16.90;81.90;;;;;;6193687;28;20243;-79
2023/09/22 05:32:41;;;;;;;2.90;2.70;;;16.90;81.70;;;;;;6190858;28;20309;-80
2023/09/22 05:35:44;;;;;;;3.33;3.23;;;16.90;81.70;;;;;;6188430;28;20236;-81
2023/09/22 05:38:47;;;;;;;3.47;3.37;;;16.90;81.70;;;;;;6187989;28;20628;-81
2023/09/22 05:41:50;;;;;;;3.30;3.10;;;16.90;81.70;;;;;;6186138;28;20348;-80
2023/09/22 05:44:55;;;;;;;3.37;3.20;;;16.90;81.70;;;;;;6190335;28;20236;-79
2023/09/22 05:47:58;;;;;;;2.93;2.73;;;17.00;81.80;;;;;;6173475;28;20350;-82
2023/09/22 05:51:01;;;;;;;3.03;2.90;;;16.90;82.10;;;;;;6193635;28;20240;-79
2023/09/22 05:54:06;;;;;;;4.07;3.67;;;16.90;82.20;;;;;;6191887;28;20238;-80
2023/09/22 05:57:09;;;;;;;3.83;3.57;;;16.90;82.30;;;;;;6171344;28;20662;-81
2023/09/22 06:00:16;;;;;;;3.80;3.50;;;16.90;82.60;;;;;;6185894;28;20778;-81
2023/09/22 06:03:20;;;;;;;3.10;3.00;;;16.80;82.90;;;;;;6188952;28;20420;-79
2023/09/22 06:06:23;;;;;;;3.67;3.57;;;16.80;83.00;;;;;;6188699;28;20224;-77
2023/09/22 06:09:26;;;;;;;3.40;3.30;;;16.80;83.10;;;;;;6185979;28;20232;-79
2023/09/22 06:12:30;;;;;;;3.73;3.53;;;16.80;83.00;;;;;;6188109;28;20710;-78
2023/09/22 06:15:34;;;;;;;3.33;3.13;;;16.90;82.90;;;;;;6191367;28;20243;-78
2023/09/22 06:18:39;;;;;;;3.30;3.10;;;16.90;82.70;;;;;;6169809;28;20237;-79
2023/09/22 06:21:43;;;;;;;3.60;3.40;;;16.90;82.90;;;;;;6189135;28;20239;-79
2023/09/22 06:24:47;;;;;;;3.60;3.50;;;16.90;83.00;;;;;;6184788;28;20298;-79
2023/09/22 06:27:52;;;;;;;3.30;3.20;;;16.90;82.60;;;;;;6185842;28;20236;-79
2023/09/22 06:30:59;;;;;;;3.40;3.20;;;16.90;82.70;;;;;;6190412;28;20318;-79
2023/09/22 06:34:03;;;;;;;3.40;3.30;;;17.00;82.50;;;;;;6190357;28;20236;-80
2023/09/22 06:37:06;;;;;;;3.17;3.07;;;17.00;82.10;;;;;;6190913;28;20240;-81
2023/09/22 06:40:12;;;;;;;3.10;3.00;;;17.00;81.70;;;;;;6188326;28;20776;-79
2023/09/22 06:43:16;;;;;;;2.80;2.80;;;17.00;81.90;;;;;;6189776;28;20718;-80
2023/09/22 06:46:27;;;;;;;2.80;2.70;;;17.00;81.80;;;;;;6189480;28;20232;-81
2023/09/22 06:49:32;;;;;;;2.87;2.77;;;17.00;81.60;;;;;;6189996;28;20236;-77
2023/09/22 06:52:35;;;;;;;4.60;3.40;;;17.00;81.50;;;;;;6188090;28;20758;-77
2023/09/22 06:55:39;;;;;;;3.60;3.30;;;17.00;81.40;;;;;;6194675;28;20771;-76
2023/09/22 06:58:42;;;;;;;3.50;3.20;;;17.00;81.70;;;;;;6190263;28;20246;-77
2023/09/22 07:01:47;;;;;;;5.40;3.20;;;17.00;81.70;;;;;;6188865;28;20323;-79
2023/09/22 07:04:50;;;;;;;3.63;3.40;;;17.10;81.60;;;;;;6188363;28;20243;-78
2023/09/22 07:07:53;;;;;;;3.53;3.30;;;17.10;81.50;;;;;;6183891;28;20862;-81
2023/09/22 07:11:02;;;;;;;3.63;3.33;;;17.20;81.10;;;;;;6182196;28;20302;-80
2023/09/22 07:14:05;;;;;;;3.27;3.17;;;17.20;80.80;;;;;;6187986;28;20248;-76
2023/09/22 07:17:10;;;;;;;3.50;3.20;;;17.30;80.70;;;;;;6189146;28;20251;-78
2023/09/22 07:20:14;;;;;;;3.87;3.57;;;17.40;80.40;;;;;;6190029;28;20898;-79
2023/09/22 07:23:18;;;;;;;3.40;3.30;;;17.20;80.30;;;;;;6184819;28;20330;-79
2023/09/22 07:26:22;;;;;;;3.27;3.07;;;17.20;80.50;;;;;;6183708;28;20236;-77
2023/09/22 07:29:25;;;;;;;3.57;3.37;;;17.20;80.20;;;;;;6188788;28;20813;-79
2023/09/22 07:32:30;;;;;;;3.97;3.63;;;17.10;80.40;;;;;;6189055;28;20248;-80
2023/09/22 07:35:33;;;;;;;4.07;3.73;;;17.20;80.50;;;;;;6189242;28;20411;-79
2023/09/22 07:38:36;;;;;;;3.10;2.87;;;17.20;80.60;;;;;;6188438;28;20980;-79
2023/09/22 07:41:39;;;;;;;3.57;3.27;;;17.10;80.80;;;;;;6187928;28;20266;-79
2023/09/22 07:44:42;;;;;;;3.50;3.30;;;17.20;80.80;;;;;;6186528;28;20236;-81
2023/09/22 07:47:47;;;;;;;3.70;3.50;;;17.20;81.10;;;;;;6186744;28;20318;-80
2023/09/22 07:50:50;;;;;;;3.97;3.47;;;17.20;80.70;;;;;;6187164;28;20232;-81
2023/09/22 07:53:53;;;;;;;3.27;3.17;;;17.30;80.80;;;;;;6188406;28;20232;-80
2023/09/22 07:56:56;;;;;;;3.43;3.23;;;17.40;80.90;;;;;;6188049;28;20232;-80
2023/09/22 08:00:00;;;;;;;3.40;3.10;;;17.50;80.80;;;;;;6184768;28;20239;-81
2023/09/22 08:03:05;;;;;;;3.50;3.30;;;17.50;80.30;;;;;;6174155;28;20421;-81
2023/09/22 08:06:09;;;;;;;3.10;3.10;;;17.40;80.10;;;;;;6188276;28;20298;-78
2023/09/22 08:09:13;;;;;;;3.23;3.13;;;17.20;80.90;;;;;;6187267;28;20743;-78
2023/09/22 08:12:16;;;;;;;3.37;3.17;;;17.30;81.00;;;;;;6187570;28;20271;-79
2023/09/22 08:15:19;;;;;;;2.80;2.80;;;17.50;80.40;;;;;;6188069;28;20826;-78
2023/09/22 08:18:24;;;;;;;3.40;3.10;;;17.50;79.60;;;;;;6188564;28;20746;-80
2023/09/22 08:21:27;;;;;;;3.23;3.13;;;17.20;80.30;;;;;;6177906;28;20243;-79
2023/09/22 08:24:30;;;;;;;3.70;3.60;;;17.20;80.30;;;;;;6185121;28;20244;-78
2023/09/22 08:27:33;;;;;;;4.37;4.10;;;17.20;81.10;;;;;;6184789;28;20235;-82
2023/09/22 08:30:37;;;;;;;3.33;3.13;;;17.20;80.90;;;;;;6186616;28;20247;-79
2023/09/22 08:33:42;;;;;;;3.50;2.90;;;17.20;80.80;;;;;;6186514;28;20239;-79
2023/09/22 08:36:45;;;;;;;3.43;3.17;;;17.40;80.70;;;;;;6187794;28;20239;-81
2023/09/22 08:39:48;;;;;;;3.60;3.07;;;17.50;80.30;;;;;;6181880;28;20231;-79
2023/09/22 08:42:52;;;;;;;3.10;2.90;;;17.50;79.80;;;;;;6187243;28;20232;-79
2023/09/22 08:45:56;;;;;;;3.17;2.93;;;17.60;79.30;;;;;;6181805;28;20244;-80
2023/09/22 08:49:00;;;;;;;2.97;2.77;;;17.50;79.20;;;;;;6183683;28;20242;-78
2023/09/22 08:52:04;;;;;;;3.77;2.93;;;17.50;79.40;;;;;;6187337;28;20330;-78
2023/09/22 08:55:13;;;;;;;2.67;2.67;;;17.30;79.80;;;;;;6186779;28;20271;-77
2023/09/22 08:58:17;;;;;;;3.47;3.17;;;17.20;80.00;;;;;;6187098;28;20260;-79
2023/09/22 09:01:20;;;;;;;3.40;3.10;;;17.30;80.00;;;;;;6189172;28;20379;-80
2023/09/22 09:04:32;;;;;;;2.40;2.40;;;17.30;79.80;;;;;;6187514;28;20841;-79
2023/09/22 09:07:35;;;;;;;2.73;2.53;;;17.40;79.70;;;;;;6172938;28;20236;-79
2023/09/22 09:10:40;;;;;;;3.17;3.07;;;17.40;79.70;;;;;;6198994;28;20245;-78
2023/09/22 09:13:44;;;;;;;2.87;2.67;;;17.30;80.20;;;;;;6184644;28;20235;-78
2023/09/22 09:16:47;;;;;;;2.80;2.70;;;17.40;79.50;;;;;;6187718;28;20319;-77
2023/09/22 09:19:56;;;;;;;6.93;4.30;;;17.40;79.30;;;;;;6187703;28;20640;-77
2023/09/22 09:23:00;;;;;;;3.80;2.90;;;17.20;79.80;;;;;;6187001;28;20634;-78
2023/09/22 09:26:03;;;;;;;3.57;3.37;;;17.20;79.80;;;;;;6188122;28;20239;-80
2023/09/22 09:29:07;;;;;;;3.40;3.30;;;17.20;79.80;;;;;;6187022;28;20240;-80
2023/09/22 09:32:12;;;;;;;2.93;2.60;;;17.20;79.70;;;;;;6193428;28;20235;-80
2023/09/22 09:35:27;;;;;;;2.80;2.60;;;17.20;79.50;;;;;;6188855;28;20236;-78
2023/09/22 09:38:46;;;;;;;2.90;2.70;;;17.20;79.60;;;;;;6194753;28;20243;-79
2023/09/22 09:41:50;;;;;;;3.80;2.70;;;17.20;78.90;;;;;;6193934;28;20859;-78
2023/09/22 09:44:56;;;;;;;2.50;2.30;;;17.20;78.40;;;;;;6193022;28;20315;-79
2023/09/22 09:48:09;;;;;;;3.07;2.43;;;17.30;78.30;;;;;;6191616;28;20864;-79
2023/09/22 09:51:20;;;;;;;2.27;2.17;;;17.30;78.40;;;;;;6191222;28;20244;-78
2023/09/22 09:54:25;;;;;;;2.57;2.47;;;17.20;77.90;;;;;;6185615;28;20240;-79
2023/09/22 09:57:30;;;;;;;3.60;3.30;;;17.20;77.80;;;;;;6191821;28;20350;-79
2023/09/22 10:00:35;;;;;;;3.20;2.87;;;17.20;78.20;;;;;;6193037;28;20382;-78
2023/09/22 10:03:40;;;;;;;2.70;2.50;;;17.20;78.20;;;;;;6190985;28;20235;-77
2023/09/22 10:06:45;;;;;;;2.40;2.30;;;17.20;78.00;;;;;;6187559;28;20240;-78
2023/09/22 10:09:54;;;;;;;3.00;2.87;;;17.20;78.20;;;;;;6184784;28;20232;-79
2023/09/22 10:12:58;;;;;;;2.63;2.43;;;17.10;78.10;;;;;;6189826;28;20302;-79
2023/09/22 10:16:03;;;;;;;2.50;2.50;;;17.20;78.10;;;;;;6189802;28;20781;-78
2023/09/22 10:19:06;;;;;;;4.00;2.63;;;17.20;77.80;;;;;;6184972;28;20792;-81
2023/09/22 10:22:12;;;;;;;2.67;2.50;;;17.20;78.00;;;;;;6190573;28;20255;-79
2023/09/22 10:25:23;;;;;;;12.57;2.50;;;17.20;78.00;;;;;;6187262;28;20243;-78
2023/09/22 10:28:36;;;;;;;4.43;2.67;;;17.20;77.30;;;;;;6188466;28;20294;-80
2023/09/22 10:32:19;;;;;;;2.90;2.70;;;17.20;77.50;;;;;;6182569;28;20235;-79
2023/09/22 10:35:40;;;;;;;2.40;2.40;;;17.20;77.30;;;;;;6185351;28;20622;-79
2023/09/22 10:38:55;;;;;;;3.10;2.60;;;17.20;77.30;;;;;;6185235;28;20240;-79
2023/09/22 10:42:01;;;;;;;2.53;2.33;;;17.40;77.00;;;;;;6185956;28;20747;-79
2023/09/22 10:45:05;;;;;;;3.20;2.50;;;17.50;76.30;;;;;;6191556;28;20240;-80
2023/09/22 10:48:11;;;;;;;2.90;2.80;;;17.30;76.10;;;;;;6190817;28;20236;-80
2023/09/22 10:51:14;;;;;;;2.90;2.80;;;17.30;76.10;;;;;;6183822;28;20256;-80
2023/09/22 10:54:19;;;;;;;2.17;2.17;;;17.30;76.20;;;;;;6189668;28;20961;-79
2023/09/22 10:57:27;;;;;;;2.40;2.30;;;17.40;75.50;;;;;;6188104;28;20318;-79
2023/09/22 11:00:32;;;;;;;2.70;2.60;;;17.30;75.60;;;;;;6185629;28;20256;-77
2023/09/22 11:03:35;;;;;;;2.87;2.77;;;17.40;75.70;;;;;;6189123;28;20789;-79
2023/09/22 11:06:44;;;;;;;3.13;2.90;;;17.40;75.70;;;;;;6190249;28;20240;-78
2023/09/22 11:09:49;;;;;;;3.30;2.70;;;17.40;75.70;;;;;;6188577;28;20252;-77
2023/09/22 11:12:54;;;;;;;3.07;2.30;;;17.30;75.70;;;;;;6190602;28;20232;-80
2023/09/22 11:16:01;;;;;;;2.63;2.33;;;17.30;75.00;;;;;;6181575;28;20240;-81
2023/09/22 11:19:05;;;;;;;2.70;2.60;;;17.20;75.50;;;;;;6188268;28;20250;-82
2023/09/22 11:22:09;;;;;;;3.40;3.20;;;17.20;76.30;;;;;;6189459;28;20236;-79
2023/09/22 11:25:14;;;;;;;3.23;2.83;;;17.20;76.70;;;;;;6190135;28;20255;-80
2023/09/22 11:28:18;;;;;;;3.33;3.00;;;17.20;77.20;;;;;;6192009;28;20247;-78
2023/09/22 11:31:21;;;;;;;2.57;2.50;;;17.20;77.30;;;;;;6191772;28;20240;-79
2023/09/22 11:34:27;;;;;;;3.00;2.90;;;17.30;77.20;;;;;;6191915;28;20247;-80
2023/09/22 11:37:33;;;;;;;3.20;3.10;;;17.30;77.00;;;;;;6189359;28;20244;-77
2023/09/22 11:40:41;;;;;;;2.97;2.87;;;17.40;76.50;;;;;;6188452;28;20235;-78
2023/09/22 11:43:45;;;;;;;3.23;3.03;;;17.40;76.90;;;;;;6195226;28;20236;-78
2023/09/22 11:46:49;;;;;;;3.03;2.83;;;17.50;77.10;;;;;;6188991;28;20312;-80
2023/09/22 11:49:52;;;;;;;3.17;3.07;;;17.60;76.80;;;;;;6190461;28;20235;-79
2023/09/22 11:53:09;;;;;;;2.77;2.67;;;17.60;76.50;;;;;;6190381;28;20231;-80
2023/09/22 11:56:14;;;;;;;2.87;2.80;;;17.80;76.70;;;;;;6186651;28;20966;-77
2023/09/22 11:59:19;;;;;;;3.00;2.90;;;17.90;76.30;;;;;;6190080;28;20250;-79
2023/09/22 12:02:22;;;;;;;4.67;3.13;;;17.80;76.40;;;;;;6187984;28;20268;-79
2023/09/22 12:05:25;;;;;;;3.43;3.23;;;17.80;77.00;;;;;;6188959;28;20240;-78
2023/09/22 12:08:29;;;;;;;3.03;3.03;;;17.80;76.30;;;;;;6184003;28;20243;-79
2023/09/22 12:11:33;;;;;;;2.80;2.70;;;17.90;75.70;;;;;;6195073;28;20236;-77
2023/09/22 12:14:38;;;;;;;3.37;3.17;;;18.00;75.80;;;;;;6190461;28;20243;-79
2023/09/22 12:17:41;;;;;;;3.00;2.80;;;18.10;75.40;;;;;;6191266;28;20236;-78
2023/09/22 12:20:44;;;;;;;3.30;3.00;;;18.10;75.20;;;;;;6183640;28;20239;-79
2023/09/22 12:23:48;;;;;;;3.03;2.73;;;18.30;75.30;;;;;;6188881;28;20246;-79
2023/09/22 12:26:52;;;;;;;5.13;3.00;;;18.40;75.00;;;;;;6189078;28;20232;-80
2023/09/22 12:29:55;;;;;;;2.80;2.70;;;18.30;74.40;;;;;;6187378;28;20271;-79
2023/09/22 12:32:58;;;;;;;2.90;2.70;;;18.40;74.40;;;;;;6190357;28;20314;-80
2023/09/22 12:36:01;;;;;;;3.00;2.90;;;18.40;74.40;;;;;;6182057;28;20235;-78
2023/09/22 12:39:05;;;;;;;3.10;3.00;;;18.30;73.90;;;;;;6185181;28;20261;-78
2023/09/22 12:42:09;;;;;;;2.67;2.67;;;18.20;73.60;;;;;;6198884;28;20244;-81
2023/09/22 12:45:12;;;;;;;2.63;2.57;;;18.00;73.40;;;;;;6189542;28;20762;-79
2023/09/22 12:48:15;;;;;;;2.70;2.50;;;18.00;73.10;;;;;;6189530;28;20243;-79
2023/09/22 12:51:19;;;;;;;3.00;2.80;;;17.80;73.70;;;;;;6187413;28;20335;-78
2023/09/22 12:54:22;;;;;;;3.20;3.20;;;17.80;73.80;;;;;;6186748;28;20259;-78
2023/09/22 12:57:28;;;;;;;3.00;2.80;;;17.50;73.90;;;;;;6188948;28;20239;-81
2023/09/22 13:00:32;;;;;;;2.87;2.87;;;17.40;73.90;;;;;;6185280;28;20251;-79
2023/09/22 13:03:35;;;;;;;3.40;3.07;;;17.30;74.40;;;;;;6190245;28;20240;-79
2023/09/22 13:06:40;;;;;;;3.00;2.63;;;17.30;74.80;;;;;;6191948;28;20267;-81
2023/09/22 13:09:44;;;;;;;2.37;2.33;;;17.20;74.10;;;;;;6191507;28;20243;-78
2023/09/22 13:12:48;;;;;;;2.60;2.40;;;17.20;73.80;;;;;;6192596;28;20319;-78
2023/09/22 13:15:52;;;;;;;2.63;2.53;;;17.30;73.80;;;;;;6189626;28;20286;-79
2023/09/22 13:18:55;;;;;;;2.53;2.43;;;17.40;74.40;;;;;;6192265;28;20266;-79
2023/09/22 13:21:58;;;;;;;2.70;2.60;;;17.40;74.10;;;;;;6191538;28;20293;-79
2023/09/22 13:25:01;;;;;;;2.63;2.50;;;17.40;74.60;;;;;;6192578;28;20315;-78
2023/09/22 13:28:06;;;;;;;2.73;2.63;;;17.20;73.70;;;;;;6192677;28;20396;-78
2023/09/22 13:31:09;;;;;;;2.83;2.73;;;17.30;73.70;;;;;;6191834;28;20939;-78
2023/09/22 13:34:13;;;;;;;2.37;2.30;;;17.40;73.40;;;;;;6187244;28;20240;-79
2023/09/22 13:37:16;;;;;;;2.83;2.60;;;17.40;73.60;;;;;;6191491;28;20950;-79
2023/09/22 13:40:21;;;;;;;2.50;2.40;;;17.50;73.20;;;;;;6190770;28;20719;-77
2023/09/22 13:43:27;;;;;;;3.17;2.93;;;17.50;73.50;;;;;;6184361;28;20657;-79
2023/09/22 13:46:30;;;;;;;2.90;2.80;;;17.60;73.90;;;;;;6179833;28;21410;-79
2023/09/22 13:49:37;;;;;;;2.93;2.83;;;17.60;74.00;;;;;;6182436;28;20232;-80
2023/09/22 13:52:41;;;;;;;3.10;2.87;;;17.60;73.70;;;;;;6188642;28;20781;-80
2023/09/22 13:55:44;;;;;;;3.37;3.17;;;17.50;73.80;;;;;;6189646;28;20327;-79
2023/09/22 13:58:49;;;;;;;3.10;3.00;;;17.60;74.40;;;;;;6190606;28;20247;-79
2023/09/22 14:01:52;;;;;;;3.33;3.13;;;17.50;74.30;;;;;;6191036;28;20236;-79
2023/09/22 14:04:56;;;;;;;6.93;3.70;;;17.50;74.40;;;;;;6184806;28;20272;-80
2023/09/22 14:07:59;;;;;;;3.40;3.30;;;17.60;74.30;;;;;;6190562;28;20282;-79
2023/09/22 14:11:02;;;;;;;3.13;3.00;;;17.50;73.90;;;;;;6190137;28;20310;-77
2023/09/22 14:14:07;;;;;;;3.10;3.00;;;17.40;74.60;;;;;;6185047;28;20247;-80
2023/09/22 14:17:10;;;;;;;3.60;3.40;;;17.50;74.70;;;;;;6178229;28;20243;-77
2023/09/22 14:20:13;;;;;;;3.40;3.17;;;17.50;74.70;;;;;;6187525;28;20256;-80
2023/09/22 14:23:17;;;;;;;3.03;2.83;;;17.40;73.60;;;;;;6188783;28;20739;-78
2023/09/22 14:26:20;;;;;;;3.17;3.07;;;17.20;74.30;;;;;;6188059;28;20232;-80
2023/09/22 14:29:25;;;;;;;4.00;3.70;;;17.20;74.10;;;;;;6185267;28;20376;-81
2023/09/22 14:32:29;;;;;;;3.30;3.20;;;17.20;73.60;;;;;;6191181;28;20244;-79
2023/09/22 14:35:32;;;;;;;4.00;3.37;;;17.10;74.10;;;;;;6185805;28;20267;-82
2023/09/22 14:38:35;;;;;;;5.40;3.47;;;17.10;74.20;;;;;;6185823;28;20874;-82
2023/09/22 14:41:38;;;;;;;4.40;3.70;;;17.00;73.90;;;;;;6188214;28;22718;-80
2023/09/22 14:44:43;;;;;;;4.07;3.77;;;17.00;73.60;;;;;;6187642;28;20678;-79
2023/09/22 14:47:47;;;;;;;4.10;3.80;;;17.00;73.40;;;;;;6189280;28;20236;-78
2023/09/22 14:50:59;;;;;;;3.50;3.37;;;17.00;73.60;;;;;;6183525;28;20228;-82
2023/09/22 14:54:02;;;;;;;3.67;3.23;;;17.00;73.80;;;;;;6181574;28;21664;-80
2023/09/22 14:57:05;;;;;;;4.03;3.37;;;17.00;73.70;;;;;;6186084;28;20236;-78
2023/09/22 15:00:12;;;;;;;3.57;3.37;;;17.00;73.30;;;;;;6186298;28;20251;-77
2023/09/22 15:03:15;;;;;;;3.97;3.67;;;17.00;72.80;;;;;;6184579;28;20614;-78
2023/09/22 15:06:21;;;;;;;3.43;3.23;;;16.90;73.20;;;;;;6182863;28;20247;-80
2023/09/22 15:09:24;;;;;;;3.50;3.30;;;16.90;73.50;;;;;;6183895;28;20310;-78
2023/09/22 15:12:28;;;;;;;5.83;4.10;;;16.90;72.90;;;;;;6185538;28;20232;-81
2023/09/22 15:15:32;;;;;;;4.00;3.80;;;16.70;73.40;;;;;;6186478;28;20318;-79
2023/09/22 15:18:37;;;;;;;3.87;3.57;;;16.70;73.40;;;;;;6179612;28;20243;-78
2023/09/22 15:21:40;;;;;;;3.47;3.20;;;16.60;73.60;;;;;;6183966;28;20236;-78
2023/09/22 15:24:43;;;;;;;3.10;3.00;;;16.70;73.60;;;;;;6188330;28;20787;-80
2023/09/22 15:27:47;;;;;;;3.23;3.00;;;16.70;73.30;;;;;;6177880;28;20236;-79
2023/09/22 15:30:52;;;;;;;3.70;3.50;;;16.80;73.20;;;;;;6170410;28;20239;-80
2023/09/22 15:33:55;;;;;;;4.03;3.83;;;16.80;73.10;;;;;;6172507;28;20276;-79
2023/09/22 15:36:59;;;;;;;4.20;3.87;;;16.70;73.10;;;;;;6183365;28;20244;-80
2023/09/22 15:40:07;;;;;;;5.73;3.47;;;16.60;73.10;;;;;;6182134;28;20793;-80
2023/09/22 15:43:11;;;;;;;3.90;3.70;;;16.60;73.30;;;;;;6172584;28;20637;-79
2023/09/22 15:46:16;;;;;;;3.83;3.53;;;16.70;73.10;;;;;;6189491;28;20236;-82
2023/09/22 15:49:19;;;;;;;4.13;3.90;;;16.60;73.10;;;;;;6187883;28;20228;-81
2023/09/22 15:52:25;;;;;;;3.67;3.47;;;16.60;73.20;;;;;;6196202;28;20975;-80
2023/09/22 15:55:28;;;;;;;4.03;3.87;;;16.60;72.90;;;;;;6187606;28;20240;-79
2023/09/22 15:58:31;;;;;;;3.23;3.00;;;16.60;73.10;;;;;;6189069;28;20239;-79